sensor_id;sensor_type;location;lat;lon;timestamp;P1;durP1;ratioP1;P2;durP2;ratioP2
61317;SDS011;47201;40.428;-8.436;2023-06-01T00:01:31;22.35;;;15.15;;
61317;SDS011;47201;40.428;-8.436;2023-06-01T00:03:34;31.13;;;17.27;;
61317;SDS011;47201;40.428;-8.436;2023-06-01T00:05:37;29.58;;;18.20;;
61317;SDS011;47201;40.428;-8.436;2023-06-01T00:07:37;34.53;;;14.02;;
61317;SDS011;47201;40.428;-8.436;2023-06-01T00:09:38;31.58;;;22.38;;
61317;SDS011;47201;40.428;-8.436;2023-06-01T00:11:39;36.10;;;23.15;;
61317;SDS011;47201;40.428;-8.436;2023-06-01T00:13:39;40.65;;;28.85;;
61317;SDS011;47201;40.428;-8.436;2023-06-01T00:15:41;49.45;;;33.10;;
61317;SDS011;47201;40.428;-8.436;2023-06-01T00:17:44;47.63;;;33.30;;
61317;SDS011;47201;40.428;-8.436;2023-06-01T00:19:45;47.17;;;32.17;;
61317;SDS011;47201;40.428;-8.436;2023-06-01T00:21:48;48.38;;;32.03;;
61317;SDS011;47201;40.428;-8.436;2023-06-01T00:23:48;49.22;;;32.78;;
61317;SDS011;47201;40.428;-8.436;2023-06-01T00:25:49;41.05;;;28.05;;
61317;SDS011;47201;40.428;-8.436;2023-06-01T00:27:50;38.05;;;22.88;;
61317;SDS011;47201;40.428;-8.436;2023-06-01T00:29:50;29.25;;;15.23;;
61317;SDS011;47201;40.428;-8.436;2023-06-01T00:31:51;36.72;;;23.15;;
61317;SDS011;47201;40.428;-8.436;2023-06-01T00:33:53;33.40;;;21.30;;
61317;SDS011;47201;40.428;-8.436;2023-06-01T00:37:55;30.07;;;20.87;;
61317;SDS011;47201;40.428;-8.436;2023-06-01T00:39:57;26.65;;;15.48;;
61317;SDS011;47201;40.428;-8.436;2023-06-01T00:41:58;39.50;;;24.13;;
61317;SDS011;47201;40.428;-8.436;2023-06-01T00:43:58;38.22;;;24.75;;
61317;SDS011;47201;40.428;-8.436;2023-06-01T00:45:59;43.72;;;26.48;;
61317;SDS011;47201;40.428;-8.436;2023-06-01T00:48:00;40.55;;;25.95;;
61317;SDS011;47201;40.428;-8.436;2023-06-01T00:50:01;41.22;;;24.23;;
61317;SDS011;47201;40.428;-8.436;2023-06-01T00:52:02;32.47;;;17.20;;
61317;SDS011;47201;40.428;-8.436;2023-06-01T00:54:03;39.38;;;23.27;;
61317;SDS011;47201;40.428;-8.436;2023-06-01T00:56:04;31.10;;;15.93;;
61317;SDS011;47201;40.428;-8.436;2023-06-01T00:58:05;33.67;;;16.88;;
61317;SDS011;47201;40.428;-8.436;2023-06-01T01:00:07;34.28;;;20.52;;
61317;SDS011;47201;40.428;-8.436;2023-06-01T01:02:15;35.45;;;19.83;;
61317;SDS011;47201;40.428;-8.436;2023-06-01T01:04:18;28.17;;;18.80;;
61317;SDS011;47201;40.428;-8.436;2023-06-01T01:06:36;22.88;;;16.35;;
61317;SDS011;47201;40.428;-8.436;2023-06-01T01:08:53;25.00;;;16.10;;
61317;SDS011;47201;40.428;-8.436;2023-06-01T01:11:15;27.15;;;18.67;;
61317;SDS011;47201;40.428;-8.436;2023-06-01T01:18:00;24.25;;;16.77;;
61317;SDS011;47201;40.428;-8.436;2023-06-01T01:27:10;18.50;;;14.23;;
61317;SDS011;47201;40.428;-8.436;2023-06-01T01:29:26;24.27;;;15.18;;
61317;SDS011;47201;40.428;-8.436;2023-06-01T01:31:30;27.65;;;19.23;;
61317;SDS011;47201;40.428;-8.436;2023-06-01T01:33:32;32.30;;;20.80;;
61317;SDS011;47201;40.428;-8.436;2023-06-01T01:35:34;32.97;;;20.75;;
61317;SDS011;47201;40.428;-8.436;2023-06-01T01:37:36;22.30;;;18.58;;
61317;SDS011;47201;40.428;-8.436;2023-06-01T01:39:37;24.83;;;17.83;;
61317;SDS011;47201;40.428;-8.436;2023-06-01T01:41:38;22.27;;;17.33;;
61317;SDS011;47201;40.428;-8.436;2023-06-01T01:43:38;32.28;;;19.67;;
61317;SDS011;47201;40.428;-8.436;2023-06-01T01:45:41;20.60;;;16.05;;
61317;SDS011;47201;40.428;-8.436;2023-06-01T01:47:54;20.70;;;16.42;;
61317;SDS011;47201;40.428;-8.436;2023-06-01T01:50:26;19.52;;;14.32;;
61317;SDS011;47201;40.428;-8.436;2023-06-01T01:52:34;24.20;;;15.93;;
61317;SDS011;47201;40.428;-8.436;2023-06-01T01:54:46;22.35;;;15.82;;
61317;SDS011;47201;40.428;-8.436;2023-06-01T01:56:49;18.20;;;14.82;;
61317;SDS011;47201;40.428;-8.436;2023-06-01T01:58:52;22.65;;;16.75;;
61317;SDS011;47201;40.428;-8.436;2023-06-01T02:00:54;19.90;;;16.48;;
61317;SDS011;47201;40.428;-8.436;2023-06-01T02:02:57;23.65;;;17.17;;
61317;SDS011;47201;40.428;-8.436;2023-06-01T02:04:59;27.58;;;18.20;;
61317;SDS011;47201;40.428;-8.436;2023-06-01T02:06:59;27.05;;;18.60;;
61317;SDS011;47201;40.428;-8.436;2023-06-01T02:09:04;29.45;;;18.52;;
61317;SDS011;47201;40.428;-8.436;2023-06-01T02:11:08;22.75;;;17.83;;
61317;SDS011;47201;40.428;-8.436;2023-06-01T02:13:09;29.70;;;19.58;;
61317;SDS011;47201;40.428;-8.436;2023-06-01T02:15:10;23.35;;;16.25;;
61317;SDS011;47201;40.428;-8.436;2023-06-01T02:17:15;22.63;;;15.60;;
61317;SDS011;47201;40.428;-8.436;2023-06-01T02:19:16;26.27;;;19.73;;
61317;SDS011;47201;40.428;-8.436;2023-06-01T02:21:17;30.92;;;19.67;;
61317;SDS011;47201;40.428;-8.436;2023-06-01T02:23:18;29.45;;;17.48;;
61317;SDS011;47201;40.428;-8.436;2023-06-01T02:25:19;28.08;;;17.10;;
61317;SDS011;47201;40.428;-8.436;2023-06-01T02:27:20;28.45;;;18.10;;
61317;SDS011;47201;40.428;-8.436;2023-06-01T02:29:21;27.65;;;16.35;;
61317;SDS011;47201;40.428;-8.436;2023-06-01T02:31:25;26.23;;;14.40;;
61317;SDS011;47201;40.428;-8.436;2023-06-01T02:33:26;21.38;;;14.35;;
61317;SDS011;47201;40.428;-8.436;2023-06-01T02:37:28;18.90;;;15.60;;
61317;SDS011;47201;40.428;-8.436;2023-06-01T02:39:29;23.80;;;15.98;;
61317;SDS011;47201;40.428;-8.436;2023-06-01T02:41:30;26.05;;;18.02;;
61317;SDS011;47201;40.428;-8.436;2023-06-01T02:43:33;23.25;;;16.88;;
61317;SDS011;47201;40.428;-8.436;2023-06-01T02:45:34;26.15;;;16.60;;
61317;SDS011;47201;40.428;-8.436;2023-06-01T02:47:35;25.05;;;17.50;;
61317;SDS011;47201;40.428;-8.436;2023-06-01T02:49:36;32.08;;;17.38;;
61317;SDS011;47201;40.428;-8.436;2023-06-01T02:51:37;27.20;;;17.58;;
61317;SDS011;47201;40.428;-8.436;2023-06-01T02:54:03;28.20;;;16.00;;
61317;SDS011;47201;40.428;-8.436;2023-06-01T02:56:04;26.75;;;17.27;;
61317;SDS011;47201;40.428;-8.436;2023-06-01T02:58:34;28.20;;;16.45;;
61317;SDS011;47201;40.428;-8.436;2023-06-01T03:00:44;26.25;;;17.42;;
61317;SDS011;47201;40.428;-8.436;2023-06-01T03:02:45;26.08;;;16.58;;
61317;SDS011;47201;40.428;-8.436;2023-06-01T03:06:46;25.77;;;15.67;;
61317;SDS011;47201;40.428;-8.436;2023-06-01T03:09:15;17.70;;;14.80;;
61317;SDS011;47201;40.428;-8.436;2023-06-01T03:11:33;24.85;;;16.00;;
61317;SDS011;47201;40.428;-8.436;2023-06-01T03:13:33;24.95;;;15.05;;
61317;SDS011;47201;40.428;-8.436;2023-06-01T03:15:34;26.55;;;15.20;;
61317;SDS011;47201;40.428;-8.436;2023-06-01T03:17:35;27.42;;;17.13;;
61317;SDS011;47201;40.428;-8.436;2023-06-01T03:19:36;25.35;;;15.48;;
61317;SDS011;47201;40.428;-8.436;2023-06-01T03:21:47;23.40;;;15.85;;
61317;SDS011;47201;40.428;-8.436;2023-06-01T03:23:52;24.25;;;15.63;;
61317;SDS011;47201;40.428;-8.436;2023-06-01T03:25:53;22.55;;;14.95;;
61317;SDS011;47201;40.428;-8.436;2023-06-01T03:27:56;29.77;;;16.23;;
61317;SDS011;47201;40.428;-8.436;2023-06-01T03:29:57;27.42;;;15.55;;
61317;SDS011;47201;40.428;-8.436;2023-06-01T03:31:57;27.13;;;17.55;;
61317;SDS011;47201;40.428;-8.436;2023-06-01T03:33:58;30.05;;;18.25;;
61317;SDS011;47201;40.428;-8.436;2023-06-01T03:35:59;23.92;;;16.00;;
61317;SDS011;47201;40.428;-8.436;2023-06-01T03:38:00;26.23;;;15.95;;
61317;SDS011;47201;40.428;-8.436;2023-06-01T03:40:01;31.15;;;18.60;;
61317;SDS011;47201;40.428;-8.436;2023-06-01T03:42:12;25.58;;;16.55;;
61317;SDS011;47201;40.428;-8.436;2023-06-01T03:46:15;27.73;;;17.08;;
61317;SDS011;47201;40.428;-8.436;2023-06-01T03:48:16;28.17;;;15.35;;
61317;SDS011;47201;40.428;-8.436;2023-06-01T03:50:16;25.95;;;16.00;;
61317;SDS011;47201;40.428;-8.436;2023-06-01T03:52:17;22.90;;;16.95;;
61317;SDS011;47201;40.428;-8.436;2023-06-01T03:54:19;25.13;;;17.00;;
61317;SDS011;47201;40.428;-8.436;2023-06-01T03:56:21;26.65;;;17.05;;
61317;SDS011;47201;40.428;-8.436;2023-06-01T03:58:24;24.30;;;16.25;;
61317;SDS011;47201;40.428;-8.436;2023-06-01T04:00:24;28.15;;;16.58;;
61317;SDS011;47201;40.428;-8.436;2023-06-01T04:02:25;28.42;;;18.55;;
61317;SDS011;47201;40.428;-8.436;2023-06-01T04:04:27;31.13;;;18.60;;
61317;SDS011;47201;40.428;-8.436;2023-06-01T04:06:29;28.95;;;18.55;;
61317;SDS011;47201;40.428;-8.436;2023-06-01T04:08:36;31.88;;;20.27;;
61317;SDS011;47201;40.428;-8.436;2023-06-01T04:10:37;35.65;;;20.75;;
61317;SDS011;47201;40.428;-8.436;2023-06-01T04:12:41;37.13;;;22.50;;
61317;SDS011;47201;40.428;-8.436;2023-06-01T04:14:42;42.83;;;23.90;;
61317;SDS011;47201;40.428;-8.436;2023-06-01T04:16:43;37.47;;;22.15;;
61317;SDS011;47201;40.428;-8.436;2023-06-01T04:18:44;36.70;;;23.67;;
61317;SDS011;47201;40.428;-8.436;2023-06-01T04:20:57;33.10;;;23.80;;
61317;SDS011;47201;40.428;-8.436;2023-06-01T04:22:57;48.67;;;24.02;;
61317;SDS011;47201;40.428;-8.436;2023-06-01T04:24:58;48.95;;;25.25;;
61317;SDS011;47201;40.428;-8.436;2023-06-01T04:26:59;43.90;;;24.95;;
61317;SDS011;47201;40.428;-8.436;2023-06-01T04:29:00;39.15;;;23.08;;
61317;SDS011;47201;40.428;-8.436;2023-06-01T04:31:01;36.88;;;25.00;;
61317;SDS011;47201;40.428;-8.436;2023-06-01T04:33:03;42.92;;;24.50;;
61317;SDS011;47201;40.428;-8.436;2023-06-01T04:35:07;36.47;;;23.15;;
61317;SDS011;47201;40.428;-8.436;2023-06-01T04:37:09;31.85;;;22.40;;
61317;SDS011;47201;40.428;-8.436;2023-06-01T04:39:10;30.80;;;22.00;;
61317;SDS011;47201;40.428;-8.436;2023-06-01T04:41:12;33.30;;;22.10;;
61317;SDS011;47201;40.428;-8.436;2023-06-01T04:43:13;30.77;;;21.65;;
61317;SDS011;47201;40.428;-8.436;2023-06-01T04:45:19;37.90;;;22.25;;
61317;SDS011;47201;40.428;-8.436;2023-06-01T04:47:20;36.28;;;21.58;;
61317;SDS011;47201;40.428;-8.436;2023-06-01T04:49:25;31.27;;;19.15;;
61317;SDS011;47201;40.428;-8.436;2023-06-01T04:51:29;35.20;;;16.95;;
61317;SDS011;47201;40.428;-8.436;2023-06-01T04:53:31;37.13;;;22.85;;
61317;SDS011;47201;40.428;-8.436;2023-06-01T04:55:32;32.03;;;19.75;;
61317;SDS011;47201;40.428;-8.436;2023-06-01T04:57:33;35.63;;;21.90;;
61317;SDS011;47201;40.428;-8.436;2023-06-01T04:59:36;35.83;;;22.83;;
61317;SDS011;47201;40.428;-8.436;2023-06-01T05:01:37;42.13;;;24.10;;
61317;SDS011;47201;40.428;-8.436;2023-06-01T05:03:39;41.60;;;23.52;;
61317;SDS011;47201;40.428;-8.436;2023-06-01T05:05:40;33.95;;;22.08;;
61317;SDS011;47201;40.428;-8.436;2023-06-01T05:07:40;25.38;;;15.32;;
61317;SDS011;47201;40.428;-8.436;2023-06-01T05:09:44;37.05;;;21.60;;
61317;SDS011;47201;40.428;-8.436;2023-06-01T05:11:45;33.42;;;20.05;;
61317;SDS011;47201;40.428;-8.436;2023-06-01T05:13:46;30.67;;;16.83;;
61317;SDS011;47201;40.428;-8.436;2023-06-01T05:15:47;35.53;;;22.75;;
61317;SDS011;47201;40.428;-8.436;2023-06-01T05:17:48;36.72;;;23.75;;
61317;SDS011;47201;40.428;-8.436;2023-06-01T05:19:51;27.90;;;15.52;;
61317;SDS011;47201;40.428;-8.436;2023-06-01T05:21:51;38.00;;;22.92;;
61317;SDS011;47201;40.428;-8.436;2023-06-01T05:23:53;38.30;;;22.88;;
61317;SDS011;47201;40.428;-8.436;2023-06-01T05:25:54;37.58;;;21.80;;
61317;SDS011;47201;40.428;-8.436;2023-06-01T05:28:15;31.88;;;22.17;;
61317;SDS011;47201;40.428;-8.436;2023-06-01T05:30:16;34.20;;;17.85;;
61317;SDS011;47201;40.428;-8.436;2023-06-01T05:32:19;37.65;;;23.10;;
61317;SDS011;47201;40.428;-8.436;2023-06-01T05:34:20;35.92;;;23.00;;
61317;SDS011;47201;40.428;-8.436;2023-06-01T05:36:21;30.90;;;23.15;;
61317;SDS011;47201;40.428;-8.436;2023-06-01T05:38:22;34.53;;;22.63;;
61317;SDS011;47201;40.428;-8.436;2023-06-01T05:40:23;37.70;;;23.15;;
61317;SDS011;47201;40.428;-8.436;2023-06-01T05:42:23;40.13;;;23.77;;
61317;SDS011;47201;40.428;-8.436;2023-06-01T05:44:24;29.90;;;21.67;;
61317;SDS011;47201;40.428;-8.436;2023-06-01T05:48:27;34.22;;;22.35;;
61317;SDS011;47201;40.428;-8.436;2023-06-01T05:50:29;35.92;;;21.52;;
61317;SDS011;47201;40.428;-8.436;2023-06-01T05:52:30;33.45;;;22.27;;
61317;SDS011;47201;40.428;-8.436;2023-06-01T05:54:31;29.85;;;21.35;;
61317;SDS011;47201;40.428;-8.436;2023-06-01T05:56:32;33.17;;;21.60;;
61317;SDS011;47201;40.428;-8.436;2023-06-01T05:58:33;35.05;;;22.63;;
61317;SDS011;47201;40.428;-8.436;2023-06-01T06:00:34;28.15;;;20.70;;
61317;SDS011;47201;40.428;-8.436;2023-06-01T06:02:38;26.83;;;18.60;;
61317;SDS011;47201;40.428;-8.436;2023-06-01T06:04:39;22.65;;;17.45;;
61317;SDS011;47201;40.428;-8.436;2023-06-01T06:06:40;25.80;;;19.38;;
61317;SDS011;47201;40.428;-8.436;2023-06-01T06:08:41;26.15;;;18.35;;
61317;SDS011;47201;40.428;-8.436;2023-06-01T06:10:44;27.77;;;20.30;;
61317;SDS011;47201;40.428;-8.436;2023-06-01T06:12:45;26.83;;;19.38;;
61317;SDS011;47201;40.428;-8.436;2023-06-01T06:14:46;27.08;;;18.88;;
61317;SDS011;47201;40.428;-8.436;2023-06-01T06:16:49;29.33;;;19.40;;
61317;SDS011;47201;40.428;-8.436;2023-06-01T06:18:50;31.15;;;19.35;;
61317;SDS011;47201;40.428;-8.436;2023-06-01T06:20:51;28.02;;;20.30;;
61317;SDS011;47201;40.428;-8.436;2023-06-01T06:22:51;25.05;;;19.33;;
61317;SDS011;47201;40.428;-8.436;2023-06-01T06:24:52;27.40;;;20.10;;
61317;SDS011;47201;40.428;-8.436;2023-06-01T06:26:53;29.15;;;18.55;;
61317;SDS011;47201;40.428;-8.436;2023-06-01T06:28:54;27.20;;;19.83;;
61317;SDS011;47201;40.428;-8.436;2023-06-01T06:30:55;27.85;;;18.50;;
61317;SDS011;47201;40.428;-8.436;2023-06-01T06:32:57;24.33;;;18.10;;
61317;SDS011;47201;40.428;-8.436;2023-06-01T06:36:58;26.77;;;18.67;;
61317;SDS011;47201;40.428;-8.436;2023-06-01T06:38:59;26.20;;;18.08;;
61317;SDS011;47201;40.428;-8.436;2023-06-01T06:41:00;24.25;;;16.88;;
61317;SDS011;47201;40.428;-8.436;2023-06-01T06:43:00;30.10;;;18.67;;
61317;SDS011;47201;40.428;-8.436;2023-06-01T06:45:01;23.10;;;18.35;;
61317;SDS011;47201;40.428;-8.436;2023-06-01T06:49:03;26.30;;;17.63;;
61317;SDS011;47201;40.428;-8.436;2023-06-01T06:51:04;23.80;;;17.38;;
61317;SDS011;47201;40.428;-8.436;2023-06-01T06:53:04;21.67;;;16.58;;
61317;SDS011;47201;40.428;-8.436;2023-06-01T06:55:05;25.30;;;18.65;;
61317;SDS011;47201;40.428;-8.436;2023-06-01T06:57:06;22.90;;;16.63;;
61317;SDS011;47201;40.428;-8.436;2023-06-01T06:59:08;25.77;;;16.23;;
61317;SDS011;47201;40.428;-8.436;2023-06-01T07:01:08;18.60;;;15.85;;
61317;SDS011;47201;40.428;-8.436;2023-06-01T07:03:10;23.33;;;16.92;;
61317;SDS011;47201;40.428;-8.436;2023-06-01T07:05:11;28.30;;;17.45;;
61317;SDS011;47201;40.428;-8.436;2023-06-01T07:07:15;19.55;;;14.68;;
61317;SDS011;47201;40.428;-8.436;2023-06-01T07:09:15;21.33;;;15.93;;
61317;SDS011;47201;40.428;-8.436;2023-06-01T07:11:16;18.98;;;14.23;;
61317;SDS011;47201;40.428;-8.436;2023-06-01T07:13:17;22.83;;;13.65;;
61317;SDS011;47201;40.428;-8.436;2023-06-01T07:15:17;26.73;;;15.23;;
61317;SDS011;47201;40.428;-8.436;2023-06-01T07:17:18;21.95;;;15.73;;
61317;SDS011;47201;40.428;-8.436;2023-06-01T07:19:20;19.85;;;14.10;;
61317;SDS011;47201;40.428;-8.436;2023-06-01T07:21:20;24.38;;;13.25;;
61317;SDS011;47201;40.428;-8.436;2023-06-01T07:23:21;25.52;;;16.25;;
61317;SDS011;47201;40.428;-8.436;2023-06-01T07:27:22;28.90;;;15.50;;
61317;SDS011;47201;40.428;-8.436;2023-06-01T07:29:23;17.17;;;13.57;;
61317;SDS011;47201;40.428;-8.436;2023-06-01T07:31:24;28.52;;;15.75;;
61317;SDS011;47201;40.428;-8.436;2023-06-01T07:33:25;25.25;;;14.30;;
61317;SDS011;47201;40.428;-8.436;2023-06-01T07:37:27;18.00;;;13.65;;
61317;SDS011;47201;40.428;-8.436;2023-06-01T07:41:28;23.63;;;12.33;;
61317;SDS011;47201;40.428;-8.436;2023-06-01T07:45:29;18.23;;;11.20;;
61317;SDS011;47201;40.428;-8.436;2023-06-01T07:49:31;17.98;;;12.07;;
61317;SDS011;47201;40.428;-8.436;2023-06-01T07:51:31;20.90;;;11.65;;
61317;SDS011;47201;40.428;-8.436;2023-06-01T07:53:32;18.98;;;12.60;;
61317;SDS011;47201;40.428;-8.436;2023-06-01T07:55:33;20.73;;;12.60;;
61317;SDS011;47201;40.428;-8.436;2023-06-01T07:57:34;17.90;;;12.93;;
61317;SDS011;47201;40.428;-8.436;2023-06-01T07:59:35;12.32;;;10.45;;
61317;SDS011;47201;40.428;-8.436;2023-06-01T08:01:36;13.40;;;9.40;;
61317;SDS011;47201;40.428;-8.436;2023-06-01T08:03:41;12.68;;;10.38;;
61317;SDS011;47201;40.428;-8.436;2023-06-01T08:05:43;12.82;;;10.82;;
61317;SDS011;47201;40.428;-8.436;2023-06-01T08:07:44;11.45;;;10.02;;
61317;SDS011;47201;40.428;-8.436;2023-06-01T08:09:46;11.02;;;9.38;;
61317;SDS011;47201;40.428;-8.436;2023-06-01T08:11:48;14.70;;;11.02;;
61317;SDS011;47201;40.428;-8.436;2023-06-01T08:13:49;10.40;;;7.97;;
61317;SDS011;47201;40.428;-8.436;2023-06-01T08:15:51;12.27;;;9.02;;
61317;SDS011;47201;40.428;-8.436;2023-06-01T08:17:52;17.50;;;11.10;;
61317;SDS011;47201;40.428;-8.436;2023-06-01T08:19:53;15.30;;;10.38;;
61317;SDS011;47201;40.428;-8.436;2023-06-01T08:21:55;12.35;;;8.98;;
61317;SDS011;47201;40.428;-8.436;2023-06-01T08:23:57;15.00;;;9.73;;
61317;SDS011;47201;40.428;-8.436;2023-06-01T08:25:59;14.43;;;8.98;;
61317;SDS011;47201;40.428;-8.436;2023-06-01T08:28:00;13.88;;;8.48;;
61317;SDS011;47201;40.428;-8.436;2023-06-01T08:30:00;14.52;;;9.50;;
61317;SDS011;47201;40.428;-8.436;2023-06-01T08:32:01;17.15;;;9.80;;
61317;SDS011;47201;40.428;-8.436;2023-06-01T08:34:02;15.50;;;9.50;;
61317;SDS011;47201;40.428;-8.436;2023-06-01T08:36:03;14.13;;;9.65;;
61317;SDS011;47201;40.428;-8.436;2023-06-01T08:38:04;11.88;;;9.25;;
61317;SDS011;47201;40.428;-8.436;2023-06-01T08:40:05;8.90;;;8.10;;
61317;SDS011;47201;40.428;-8.436;2023-06-01T08:44:36;14.13;;;8.60;;
61317;SDS011;47201;40.428;-8.436;2023-06-01T08:46:39;15.20;;;8.57;;
61317;SDS011;47201;40.428;-8.436;2023-06-01T08:48:42;9.10;;;7.88;;
61317;SDS011;47201;40.428;-8.436;2023-06-01T08:50:45;12.75;;;8.48;;
61317;SDS011;47201;40.428;-8.436;2023-06-01T08:52:49;18.15;;;10.13;;
61317;SDS011;47201;40.428;-8.436;2023-06-01T08:54:56;11.52;;;9.35;;
61317;SDS011;47201;40.428;-8.436;2023-06-01T08:56:59;11.48;;;7.07;;
61317;SDS011;47201;40.428;-8.436;2023-06-01T08:59:02;19.23;;;8.40;;
61317;SDS011;47201;40.428;-8.436;2023-06-01T09:01:03;13.43;;;9.80;;
61317;SDS011;47201;40.428;-8.436;2023-06-01T09:03:05;20.27;;;10.07;;
61317;SDS011;47201;40.428;-8.436;2023-06-01T09:05:07;11.88;;;8.27;;
61317;SDS011;47201;40.428;-8.436;2023-06-01T09:07:08;19.50;;;9.57;;
61317;SDS011;47201;40.428;-8.436;2023-06-01T09:09:09;11.48;;;9.38;;
61317;SDS011;47201;40.428;-8.436;2023-06-01T09:11:15;16.00;;;10.07;;
61317;SDS011;47201;40.428;-8.436;2023-06-01T09:13:34;23.25;;;9.43;;
61317;SDS011;47201;40.428;-8.436;2023-06-01T09:15:51;19.83;;;9.25;;
61317;SDS011;47201;40.428;-8.436;2023-06-01T09:18:04;14.07;;;8.98;;
61317;SDS011;47201;40.428;-8.436;2023-06-01T09:20:10;15.43;;;9.32;;
61317;SDS011;47201;40.428;-8.436;2023-06-01T09:22:12;17.67;;;10.18;;
61317;SDS011;47201;40.428;-8.436;2023-06-01T09:24:19;15.02;;;10.73;;
61317;SDS011;47201;40.428;-8.436;2023-06-01T09:26:25;20.80;;;11.43;;
61317;SDS011;47201;40.428;-8.436;2023-06-01T09:28:27;28.35;;;11.27;;
61317;SDS011;47201;40.428;-8.436;2023-06-01T09:30:38;18.65;;;9.38;;
61317;SDS011;47201;40.428;-8.436;2023-06-01T09:32:40;15.80;;;8.77;;
61317;SDS011;47201;40.428;-8.436;2023-06-01T09:34:43;13.27;;;8.95;;
61317;SDS011;47201;40.428;-8.436;2023-06-01T09:39:05;17.52;;;10.00;;
61317;SDS011;47201;40.428;-8.436;2023-06-01T09:41:08;24.08;;;9.98;;
61317;SDS011;47201;40.428;-8.436;2023-06-01T09:43:18;12.57;;;8.95;;
61317;SDS011;47201;40.428;-8.436;2023-06-01T09:45:22;11.43;;;8.52;;
61317;SDS011;47201;40.428;-8.436;2023-06-01T09:47:24;17.38;;;8.85;;
61317;SDS011;47201;40.428;-8.436;2023-06-01T09:49:32;16.75;;;9.02;;
61317;SDS011;47201;40.428;-8.436;2023-06-01T09:51:40;16.83;;;8.65;;
61317;SDS011;47201;40.428;-8.436;2023-06-01T09:53:47;13.07;;;7.95;;
61317;SDS011;47201;40.428;-8.436;2023-06-01T09:55:57;15.38;;;7.90;;
61317;SDS011;47201;40.428;-8.436;2023-06-01T10:00:22;13.98;;;7.97;;
61317;SDS011;47201;40.428;-8.436;2023-06-01T10:02:24;10.07;;;7.57;;
61317;SDS011;47201;40.428;-8.436;2023-06-01T10:04:26;12.68;;;8.90;;
61317;SDS011;47201;40.428;-8.436;2023-06-01T10:06:28;19.35;;;9.50;;
61317;SDS011;47201;40.428;-8.436;2023-06-01T10:08:33;12.90;;;8.68;;
61317;SDS011;47201;40.428;-8.436;2023-06-01T10:10:35;17.20;;;8.13;;
61317;SDS011;47201;40.428;-8.436;2023-06-01T10:12:37;12.95;;;6.97;;
61317;SDS011;47201;40.428;-8.436;2023-06-01T10:14:38;11.93;;;8.02;;
61317;SDS011;47201;40.428;-8.436;2023-06-01T10:16:42;11.40;;;8.35;;
61317;SDS011;47201;40.428;-8.436;2023-06-01T10:19:02;12.20;;;7.80;;
61317;SDS011;47201;40.428;-8.436;2023-06-01T10:21:05;9.10;;;7.45;;
61317;SDS011;47201;40.428;-8.436;2023-06-01T10:23:08;7.97;;;7.18;;
61317;SDS011;47201;40.428;-8.436;2023-06-01T10:25:09;16.40;;;8.35;;
61317;SDS011;47201;40.428;-8.436;2023-06-01T10:29:30;11.18;;;7.68;;
61317;SDS011;47201;40.428;-8.436;2023-06-01T10:33:51;12.68;;;6.75;;
61317;SDS011;47201;40.428;-8.436;2023-06-01T10:35:56;16.45;;;8.13;;
61317;SDS011;47201;40.428;-8.436;2023-06-01T10:46:41;11.77;;;7.68;;
61317;SDS011;47201;40.428;-8.436;2023-06-01T10:48:52;16.67;;;9.35;;
61317;SDS011;47201;40.428;-8.436;2023-06-01T10:53:25;14.73;;;8.40;;
61317;SDS011;47201;40.428;-8.436;2023-06-01T10:55:30;10.67;;;7.93;;
61317;SDS011;47201;40.428;-8.436;2023-06-01T10:57:32;10.75;;;7.82;;
61317;SDS011;47201;40.428;-8.436;2023-06-01T10:59:33;12.75;;;7.50;;
61317;SDS011;47201;40.428;-8.436;2023-06-01T11:01:35;13.43;;;8.50;;
61317;SDS011;47201;40.428;-8.436;2023-06-01T11:03:44;12.40;;;8.73;;
61317;SDS011;47201;40.428;-8.436;2023-06-01T11:05:50;15.23;;;7.93;;
61317;SDS011;47201;40.428;-8.436;2023-06-01T11:07:52;9.25;;;7.80;;
61317;SDS011;47201;40.428;-8.436;2023-06-01T11:09:53;16.27;;;9.40;;
61317;SDS011;47201;40.428;-8.436;2023-06-01T11:14:08;15.82;;;8.88;;
61317;SDS011;47201;40.428;-8.436;2023-06-01T11:20:44;9.82;;;7.43;;
61317;SDS011;47201;40.428;-8.436;2023-06-01T11:22:46;11.45;;;7.75;;
61317;SDS011;47201;40.428;-8.436;2023-06-01T11:24:48;14.18;;;7.50;;
61317;SDS011;47201;40.428;-8.436;2023-06-01T11:26:54;10.63;;;7.28;;
61317;SDS011;47201;40.428;-8.436;2023-06-01T11:29:05;8.20;;;6.30;;
61317;SDS011;47201;40.428;-8.436;2023-06-01T11:31:09;10.52;;;6.22;;
61317;SDS011;47201;40.428;-8.436;2023-06-01T11:33:11;11.05;;;6.22;;
61317;SDS011;47201;40.428;-8.436;2023-06-01T11:35:16;8.88;;;6.40;;
61317;SDS011;47201;40.428;-8.436;2023-06-01T11:37:18;14.40;;;7.00;;
61317;SDS011;47201;40.428;-8.436;2023-06-01T11:39:24;10.93;;;6.45;;
61317;SDS011;47201;40.428;-8.436;2023-06-01T11:41:28;6.50;;;5.80;;
61317;SDS011;47201;40.428;-8.436;2023-06-01T11:43:41;7.57;;;5.72;;
61317;SDS011;47201;40.428;-8.436;2023-06-01T11:45:45;8.00;;;6.15;;
61317;SDS011;47201;40.428;-8.436;2023-06-01T11:47:46;6.88;;;6.25;;
61317;SDS011;47201;40.428;-8.436;2023-06-01T11:49:50;10.98;;;6.13;;
61317;SDS011;47201;40.428;-8.436;2023-06-01T11:52:09;11.60;;;6.72;;
61317;SDS011;47201;40.428;-8.436;2023-06-01T11:54:29;15.05;;;6.85;;
61317;SDS011;47201;40.428;-8.436;2023-06-01T12:01:11;14.57;;;9.52;;
61317;SDS011;47201;40.428;-8.436;2023-06-01T12:03:15;17.33;;;9.85;;
61317;SDS011;47201;40.428;-8.436;2023-06-01T12:05:16;10.90;;;9.80;;
61317;SDS011;47201;40.428;-8.436;2023-06-01T12:07:17;11.00;;;9.57;;
61317;SDS011;47201;40.428;-8.436;2023-06-01T12:09:18;10.63;;;8.80;;
61317;SDS011;47201;40.428;-8.436;2023-06-01T12:11:24;14.98;;;8.80;;
61317;SDS011;47201;40.428;-8.436;2023-06-01T12:13:28;8.00;;;7.20;;
61317;SDS011;47201;40.428;-8.436;2023-06-01T12:15:30;8.00;;;6.97;;
61317;SDS011;47201;40.428;-8.436;2023-06-01T12:17:50;9.60;;;7.13;;
61317;SDS011;47201;40.428;-8.436;2023-06-01T12:19:55;14.30;;;6.95;;
61317;SDS011;47201;40.428;-8.436;2023-06-01T12:21:56;8.23;;;6.35;;
61317;SDS011;47201;40.428;-8.436;2023-06-01T12:23:58;8.45;;;6.40;;
61317;SDS011;47201;40.428;-8.436;2023-06-01T12:25:59;9.57;;;7.57;;
61317;SDS011;47201;40.428;-8.436;2023-06-01T12:28:01;13.57;;;7.70;;
61317;SDS011;47201;40.428;-8.436;2023-06-01T12:30:02;12.85;;;7.88;;
61317;SDS011;47201;40.428;-8.436;2023-06-01T12:32:04;12.80;;;7.45;;
61317;SDS011;47201;40.428;-8.436;2023-06-01T12:34:14;7.88;;;7.07;;
61317;SDS011;47201;40.428;-8.436;2023-06-01T12:36:30;13.68;;;6.93;;
61317;SDS011;47201;40.428;-8.436;2023-06-01T12:38:35;11.18;;;7.28;;
61317;SDS011;47201;40.428;-8.436;2023-06-01T12:40:38;15.10;;;7.65;;
61317;SDS011;47201;40.428;-8.436;2023-06-01T12:42:45;8.93;;;8.02;;
61317;SDS011;47201;40.428;-8.436;2023-06-01T12:44:53;11.13;;;7.95;;
61317;SDS011;47201;40.428;-8.436;2023-06-01T12:46:58;13.10;;;8.50;;
61317;SDS011;47201;40.428;-8.436;2023-06-01T12:49:15;13.50;;;8.63;;
61317;SDS011;47201;40.428;-8.436;2023-06-01T12:51:35;11.75;;;8.32;;
61317;SDS011;47201;40.428;-8.436;2023-06-01T12:53:36;11.63;;;8.07;;
61317;SDS011;47201;40.428;-8.436;2023-06-01T12:55:55;12.07;;;7.70;;
61317;SDS011;47201;40.428;-8.436;2023-06-01T12:58:15;17.67;;;8.25;;
61317;SDS011;47201;40.428;-8.436;2023-06-01T13:00:34;13.15;;;8.25;;
61317;SDS011;47201;40.428;-8.436;2023-06-01T13:02:36;13.73;;;10.35;;
61317;SDS011;47201;40.428;-8.436;2023-06-01T13:04:55;22.05;;;9.85;;
61317;SDS011;47201;40.428;-8.436;2023-06-01T13:07:14;18.52;;;9.40;;